createdAt,value
2023-04-21T00:00:23.731Z,3.7808
2023-04-21T00:01:31.911Z,3.7768
2023-04-21T00:02:40.203Z,3.8565
2023-04-21T00:03:48.126Z,3.9441
2023-04-21T00:04:56.225Z,4.1011
2023-04-21T00:06:04.014Z,4.0274
2023-04-21T00:07:12.368Z,3.8943
2023-04-21T00:08:20.282Z,3.9780
2023-04-21T00:09:28.392Z,3.9452
2023-04-21T00:10:36.443Z,3.8443
2023-04-21T00:11:44.476Z,3.8003
2023-04-21T00:12:52.532Z,3.8726
2023-04-21T00:14:00.719Z,4.0870
2023-04-21T00:15:08.640Z,4.2123
2023-04-21T00:16:16.791Z,4.1640
2023-04-21T00:17:24.682Z,4.0065
2023-04-21T00:18:32.822Z,3.8894
2023-04-21T00:19:40.849Z,3.7621
2023-04-21T00:20:48.928Z,3.6954
2023-04-21T00:21:57.065Z,3.6448
2023-04-21T00:23:04.931Z,3.6618
2023-04-21T00:24:13.458Z,3.4476
2023-04-21T00:25:21.149Z,3.2405
2023-04-21T00:26:29.240Z,3.2456
2023-04-21T00:27:37.399Z,3.3171
2023-04-21T00:28:45.259Z,3.3267
2023-04-21T00:29:53.411Z,3.2512
2023-04-21T00:31:01.565Z,3.1670
2023-04-21T00:32:09.543Z,3.3223
2023-04-21T00:33:17.638Z,3.2878
2023-04-21T00:34:25.796Z,3.2758
2023-04-21T00:35:33.730Z,3.3213
2023-04-21T00:36:42.084Z,3.3072
2023-04-21T00:37:49.833Z,3.3570
2023-04-21T00:38:58.004Z,3.3480
2023-04-21T00:40:06.018Z,3.3458
2023-04-21T00:41:14.003Z,3.4079
2023-04-21T00:42:22.121Z,3.4352
2023-04-21T00:43:30.300Z,3.5302
2023-04-21T00:44:38.188Z,3.6364
2023-04-21T00:45:46.303Z,3.5092
2023-04-21T00:46:54.362Z,3.4533
2023-04-21T00:48:02.392Z,3.3633
2023-04-21T00:49:10.483Z,3.2582
2023-04-21T00:50:18.590Z,3.2256
2023-04-21T00:51:26.447Z,3.2248
2023-04-21T00:52:34.739Z,3.2428
2023-04-21T00:53:42.738Z,3.2754
2023-04-21T00:54:50.717Z,3.3742
2023-04-21T00:55:58.886Z,3.4625
2023-04-21T00:57:06.714Z,3.5012
2023-04-21T00:58:14.910Z,3.4907
2023-04-21T00:59:22.965Z,3.3885
2023-04-21T01:00:30.940Z,3.3440
2023-04-21T01:01:39.267Z,3.5098
2023-04-21T01:02:47.264Z,3.5315
2023-04-21T01:03:55.329Z,3.5254
2023-04-21T01:05:03.273Z,3.4394
2023-04-21T01:06:11.221Z,3.5462
2023-04-21T01:07:19.447Z,3.5804
2023-04-21T01:08:27.460Z,3.5168
2023-04-21T01:09:35.558Z,3.5750
2023-04-21T01:10:43.761Z,3.5033
2023-04-21T01:11:51.487Z,3.6038
2023-04-21T01:12:59.746Z,3.7028
2023-04-21T01:14:07.745Z,3.8382
2023-04-21T01:15:15.790Z,3.8058
2023-04-21T01:16:23.921Z,3.6500
2023-04-21T01:17:31.805Z,3.6851
2023-04-21T01:18:40.054Z,3.7261
2023-04-21T01:19:48.033Z,3.7095
2023-04-21T01:20:56.225Z,3.8409
2023-04-21T01:22:04.147Z,3.8825
2023-04-21T01:23:12.240Z,3.8514
2023-04-21T01:24:20.294Z,3.8363
2023-04-21T01:25:28.497Z,3.8573
2023-04-21T01:26:36.389Z,3.9187
2023-04-21T01:27:44.461Z,3.9323
2023-04-21T01:28:52.411Z,3.9185
2023-04-21T01:30:00.624Z,3.8016
2023-04-21T01:31:08.758Z,3.8125
2023-04-21T01:32:16.830Z,3.9489
2023-04-21T01:33:24.717Z,3.6998
2023-04-21T01:34:32.786Z,3.5703
2023-04-21T01:35:40.966Z,3.5098
2023-04-21T01:36:48.932Z,3.4838
2023-04-21T01:37:56.942Z,3.6086
2023-04-21T01:39:05.123Z,3.7114
2023-04-21T01:40:13.083Z,3.6549
2023-04-21T01:41:21.207Z,3.5342
2023-04-21T01:42:29.211Z,3.4688
2023-04-21T01:43:37.265Z,3.5117
2023-04-21T01:44:45.308Z,3.5327
2023-04-21T01:45:53.380Z,3.4974
2023-04-21T01:47:01.486Z,3.5296
2023-04-21T01:48:09.655Z,3.5857
2023-04-21T01:49:17.587Z,3.5983
2023-04-21T01:50:25.693Z,3.6126
2023-04-21T01:51:33.663Z,3.6370
2023-04-21T01:52:41.863Z,3.6357
2023-04-21T01:53:49.660Z,3.7198
2023-04-21T01:54:57.933Z,3.6792
2023-04-21T01:56:05.904Z,3.6551
2023-04-21T01:57:14.157Z,3.4634
2023-04-21T01:58:22.109Z,3.4632
2023-04-21T01:59:30.005Z,3.5353
2023-04-21T02:00:38.033Z,3.4694
2023-04-21T02:01:46.274Z,3.3475
2023-04-21T02:02:54.355Z,3.2910
2023-04-21T02:04:02.608Z,3.2649
2023-04-21T02:05:10.390Z,3.3341
2023-04-21T02:06:18.332Z,3.3931
2023-04-21T02:07:26.830Z,3.4110
2023-04-21T02:08:34.674Z,3.4188
2023-04-21T02:09:42.712Z,3.4278
2023-04-21T02:10:50.643Z,3.5353
2023-04-21T02:11:58.748Z,3.5064
2023-04-21T02:13:06.825Z,3.5348
2023-04-21T02:14:14.879Z,3.5954
2023-04-21T02:15:22.924Z,3.6490
2023-04-21T02:16:30.913Z,3.6603
2023-04-21T02:17:38.987Z,3.6040
2023-04-21T02:18:47.119Z,3.5987
2023-04-21T02:19:55.195Z,3.6275
2023-04-21T02:21:03.281Z,3.6422
2023-04-21T02:22:11.303Z,3.5174
2023-04-21T02:23:19.388Z,3.5769
2023-04-21T02:24:27.420Z,3.5641
2023-04-21T02:25:35.601Z,3.6122
2023-04-21T02:26:43.644Z,3.7242
2023-04-21T02:27:51.578Z,3.7122
2023-04-21T02:28:59.781Z,3.6746
2023-04-21T02:30:07.763Z,3.5518
2023-04-21T02:31:15.816Z,3.4840
2023-04-21T02:32:26.217Z,3.4491
2023-04-21T02:33:31.898Z,3.4880
2023-04-21T02:38:40.384Z,3.3900
2023-04-21T02:38:40.384Z,3.3349
2023-04-21T02:39:46.211Z,3.5277
2023-04-21T02:40:54.234Z,3.5250
2023-04-21T02:42:02.205Z,3.7408
2023-04-21T02:43:10.379Z,3.7459
2023-04-21T02:44:18.368Z,3.6172
2023-04-21T02:45:26.665Z,3.5203
2023-04-21T02:46:34.635Z,3.4514
2023-04-21T02:47:42.523Z,3.3128
2023-04-21T02:48:50.675Z,3.2552
2023-04-21T02:49:58.965Z,3.4100
2023-04-21T02:51:06.812Z,3.3931
2023-04-21T02:52:14.873Z,3.3057
2023-04-21T02:53:22.931Z,3.2197
2023-04-21T02:54:31.406Z,3.4163
2023-04-21T02:55:39.056Z,3.5626
2023-04-21T02:56:47.099Z,3.6481
2023-04-21T02:57:55.166Z,3.6620
2023-04-21T02:59:03.223Z,3.4665
2023-04-21T03:00:11.375Z,3.4039
2023-04-21T03:01:19.400Z,3.3677
2023-04-21T03:02:27.895Z,3.4320
2023-04-21T03:03:35.389Z,3.4850
2023-04-21T03:04:43.417Z,3.5565
2023-04-21T03:05:51.601Z,3.6528
2023-04-21T03:06:59.704Z,3.6809
2023-04-21T03:08:07.761Z,3.7495
2023-04-21T03:09:15.811Z,3.7768
2023-04-21T03:10:23.671Z,3.6950
2023-04-21T03:11:31.911Z,3.6744
2023-04-21T03:12:40.071Z,3.8365
2023-04-21T03:13:47.947Z,3.9164
2023-04-21T03:14:56.113Z,3.9290
2023-04-21T03:16:04.038Z,3.9334
2023-04-21T03:17:12.159Z,3.9206
2023-04-21T03:18:20.209Z,3.8583
2023-04-21T03:19:28.314Z,3.8667
2023-04-21T03:20:36.409Z,3.7925
2023-04-21T03:21:44.388Z,3.7652
2023-04-21T03:22:52.486Z,3.8708
2023-04-21T03:24:00.511Z,3.7282
2023-04-21T03:25:08.592Z,3.6292
2023-04-21T03:26:16.703Z,3.6780
2023-04-21T03:27:24.554Z,3.6969
2023-04-21T03:28:32.735Z,3.6704
2023-04-21T03:29:40.837Z,3.7865
2023-04-21T03:30:48.860Z,3.8575
2023-04-21T03:31:57.052Z,3.8867
2023-04-21T03:33:04.941Z,3.7511
2023-04-21T03:34:13.176Z,3.6660
2023-04-21T03:35:21.129Z,3.6698
2023-04-21T03:36:29.176Z,3.8077
2023-04-21T03:37:37.196Z,3.7074
2023-04-21T03:38:45.303Z,3.3994
2023-04-21T03:39:53.349Z,3.4312
2023-04-21T03:41:01.703Z,3.5588
2023-04-21T03:42:09.666Z,3.4875
2023-04-21T03:43:17.595Z,3.4838
2023-04-21T03:44:25.708Z,3.4989
2023-04-21T03:45:33.729Z,3.4962
2023-04-21T03:46:41.665Z,3.3124
2023-04-21T03:47:49.847Z,3.5052
2023-04-21T03:48:57.966Z,3.4987
2023-04-21T03:50:05.972Z,3.5344
2023-04-21T03:51:13.994Z,3.5533
2023-04-21T03:52:22.283Z,3.6225
2023-04-21T03:53:30.028Z,3.5996
2023-04-21T03:54:38.277Z,3.6155
2023-04-21T03:55:46.528Z,3.5424
2023-04-21T03:56:54.345Z,3.6755
2023-04-21T03:58:02.270Z,3.6900
2023-04-21T03:59:10.354Z,3.7314
2023-04-21T04:00:18.620Z,3.6994
2023-04-21T04:01:26.707Z,3.7053
2023-04-21T04:02:34.888Z,3.6872
2023-04-21T04:03:42.904Z,3.5161
2023-04-21T04:04:50.742Z,3.3974
2023-04-21T04:05:58.799Z,3.5262
2023-04-21T04:07:06.893Z,3.6118
2023-04-21T04:08:14.911Z,3.6923
2023-04-21T04:09:22.943Z,3.6996
2023-04-21T04:10:31.025Z,3.7402
2023-04-21T04:11:39.233Z,3.4015
2023-04-21T04:12:47.150Z,3.3322
2023-04-21T04:13:55.258Z,3.3957
2023-04-21T04:15:03.308Z,3.3559
2023-04-21T04:16:11.543Z,3.4962
2023-04-21T04:17:19.503Z,3.6010
2023-04-21T04:18:27.375Z,3.6359
2023-04-21T04:19:35.534Z,3.6450
2023-04-21T04:20:43.633Z,3.7209
2023-04-21T04:21:51.586Z,3.7646
2023-04-21T04:22:59.958Z,3.7803
2023-04-21T04:24:07.665Z,3.7534
2023-04-21T04:25:15.973Z,3.6444
2023-04-21T04:26:23.925Z,3.5664
2023-04-21T04:27:31.857Z,3.3719
2023-04-21T04:28:40.116Z,3.3912
2023-04-21T04:29:48.031Z,3.6862
2023-04-21T04:30:56.149Z,3.7320
2023-04-21T04:32:04.215Z,3.6763
2023-04-21T04:33:12.287Z,3.6868
2023-04-21T04:34:20.336Z,3.7555
2023-04-21T04:35:28.365Z,3.8541
2023-04-21T04:36:36.313Z,4.0309
2023-04-21T04:37:44.460Z,4.1920
2023-04-21T04:38:52.510Z,4.1566
2023-04-21T04:40:00.740Z,4.1701
2023-04-21T04:41:08.650Z,4.1203
2023-04-21T04:42:16.583Z,4.0227
2023-04-21T04:43:24.812Z,4.0604
2023-04-21T04:44:32.772Z,4.1678
2023-04-21T04:45:40.898Z,4.1171
2023-04-21T04:46:49.007Z,4.1409
2023-04-21T04:47:56.985Z,4.2186
2023-04-21T04:49:05.003Z,3.9971
2023-04-21T04:50:13.158Z,3.9571
2023-04-21T04:51:21.833Z,3.9996
2023-04-21T04:52:29.227Z,4.1512
2023-04-21T04:53:37.199Z,4.1886
2023-04-21T04:54:45.304Z,4.1856
2023-04-21T04:55:53.363Z,4.2205
2023-04-21T04:57:01.455Z,4.3071
2023-04-21T04:58:09.491Z,4.3694
2023-04-21T04:59:17.702Z,4.4268
2023-04-21T05:00:25.612Z,4.3889
2023-04-21T05:01:33.701Z,4.3668
2023-04-21T05:02:41.906Z,4.1636
2023-04-21T05:03:49.988Z,4.1444
2023-04-21T05:04:58.145Z,4.2950
2023-04-21T05:06:05.941Z,4.3866
2023-04-21T05:07:13.903Z,4.3341
2023-04-21T05:08:22.143Z,4.4558
2023-04-21T05:09:30.066Z,4.4774
2023-04-21T05:10:38.238Z,4.4062
2023-04-21T05:11:46.275Z,4.2531
2023-04-21T05:12:54.155Z,4.1436
2023-04-21T05:14:02.333Z,4.3490
2023-04-21T05:15:10.459Z,4.4774
2023-04-21T05:16:18.486Z,4.6887
2023-04-21T05:17:26.499Z,4.7345
2023-04-21T05:18:34.577Z,4.7751
2023-04-21T05:19:42.769Z,4.4967
2023-04-21T05:20:50.789Z,4.1898
2023-04-21T05:21:58.738Z,4.3151
2023-04-21T05:23:06.855Z,4.4423
2023-04-21T05:24:14.848Z,4.3969
2023-04-21T05:25:22.960Z,4.4696
2023-04-21T05:26:31.079Z,4.6044
2023-04-21T05:27:38.984Z,4.6555
2023-04-21T05:28:47.230Z,4.5750
2023-04-21T05:29:55.258Z,4.5623
2023-04-21T05:31:03.217Z,4.7137
2023-04-21T05:32:11.303Z,4.8966
2023-04-21T05:33:19.348Z,4.8590
2023-04-21T05:34:27.347Z,4.8016
2023-04-21T05:35:37.762Z,5.0080
2023-04-21T05:36:43.444Z,5.0853
2023-04-21T05:37:51.542Z,4.9977
2023-04-21T05:38:59.612Z,4.7971
2023-04-21T05:40:07.837Z,5.0050
2023-04-21T05:41:15.730Z,4.9853
2023-04-21T05:42:23.704Z,4.8159
2023-04-21T05:43:31.865Z,4.7093
2023-04-21T05:44:39.919Z,4.7370
2023-04-21T05:45:48.049Z,4.5728
2023-04-21T05:46:56.034Z,4.5613
2023-04-21T05:48:04.057Z,4.7976
2023-04-21T05:49:12.180Z,4.8882
2023-04-21T05:50:20.163Z,4.7662
2023-04-21T05:51:28.219Z,4.7440
2023-04-21T05:52:36.284Z,4.9174
2023-04-21T05:53:44.350Z,5.0235
2023-04-21T05:54:52.578Z,5.0370
2023-04-21T05:56:00.498Z,5.2176
2023-04-21T05:57:08.563Z,5.1583
2023-04-21T05:58:16.798Z,5.0809
2023-04-21T05:59:24.642Z,4.9216
2023-04-21T06:00:32.920Z,4.9142
2023-04-21T06:01:40.832Z,4.9081
2023-04-21T06:02:48.916Z,4.8711
2023-04-21T06:03:57.056Z,4.9819
2023-04-21T06:05:05.253Z,5.1921
2023-04-21T06:06:13.197Z,5.3399
2023-04-21T06:07:21.182Z,5.3813
2023-04-21T06:08:29.165Z,5.3857
2023-04-21T06:09:37.310Z,5.2609
2023-04-21T06:10:45.258Z,5.2043
2023-04-21T06:11:53.360Z,5.2335
2023-04-21T06:13:01.487Z,5.2224
2023-04-21T06:14:09.445Z,5.3250
2023-04-21T06:15:17.603Z,5.2375
2023-04-21T06:16:25.587Z,5.2726
2023-04-21T06:17:33.777Z,5.1545
2023-04-21T06:18:41.807Z,4.7622
2023-04-21T06:19:49.828Z,4.7852
2023-04-21T06:20:57.826Z,5.1587
2023-04-21T06:22:05.821Z,5.2855
2023-04-21T06:23:13.863Z,5.3017
2023-04-21T06:24:22.168Z,5.2449
2023-04-21T06:25:30.058Z,5.1362
2023-04-21T06:26:38.296Z,5.1528
2023-04-21T06:27:46.238Z,5.0902
2023-04-21T06:28:54.255Z,4.9439
2023-04-21T06:30:02.385Z,4.8663
2023-04-21T06:31:10.466Z,4.7437
2023-04-21T06:32:18.398Z,4.6223
2023-04-21T06:33:26.460Z,4.6153
2023-04-21T06:34:34.674Z,4.5792
2023-04-21T06:35:42.677Z,4.7372
2023-04-21T06:36:50.658Z,4.7974
2023-04-21T06:37:58.758Z,4.8274
2023-04-21T06:39:06.805Z,4.8056
2023-04-21T06:40:14.721Z,4.7574
2023-04-21T06:41:24.710Z,4.7225
2023-04-21T06:42:31.098Z,4.7314
2023-04-21T06:43:38.965Z,4.9748
2023-04-21T06:44:48.838Z,5.1627
2023-04-21T06:45:59.981Z,5.3162
2023-04-21T06:47:08.069Z,5.3017
2023-04-21T06:48:16.122Z,5.1863
2023-04-21T06:49:24.050Z,5.0624
2023-04-21T06:50:32.181Z,5.2865
2023-04-21T06:51:40.226Z,5.5938
2023-04-21T06:52:48.504Z,5.4725
2023-04-21T06:53:56.350Z,5.3183
2023-04-21T06:55:04.416Z,5.3586
2023-04-21T06:56:12.750Z,5.3586
2023-04-21T06:57:20.587Z,5.3931
2023-04-21T06:58:28.693Z,5.3342
2023-04-21T06:59:36.725Z,5.3794
2023-04-21T07:00:44.788Z,5.4084
2023-04-21T07:01:52.827Z,5.4848
2023-04-21T07:03:00.931Z,5.7902
2023-04-21T07:04:09.120Z,5.6510
2023-04-21T07:05:17.006Z,5.5854
2023-04-21T07:06:25.071Z,5.5081
2023-04-21T07:07:33.067Z,5.5302
2023-04-21T07:08:41.196Z,5.5499
2023-04-21T07:09:49.214Z,5.4818
2023-04-21T07:10:57.497Z,5.3862
2023-04-21T07:12:05.221Z,5.5758
2023-04-21T07:13:13.375Z,5.6290
2023-04-21T07:14:21.606Z,5.6838
2023-04-21T07:15:29.567Z,5.9424
2023-04-21T07:16:37.609Z,6.0912
2023-04-21T07:17:45.547Z,6.2390
2023-04-21T07:18:55.105Z,6.1456
2023-04-21T07:20:06.813Z,6.0162
2023-04-21T07:21:14.674Z,5.8596
2023-04-21T07:22:22.839Z,5.7587
2023-04-21T07:23:30.816Z,5.7200
2023-04-21T07:24:38.847Z,5.7294
2023-04-21T07:25:46.951Z,5.8732
2023-04-21T07:26:54.860Z,5.8051
2023-04-21T07:28:03.019Z,5.9335
2023-04-21T07:29:10.979Z,6.0277
2023-04-21T07:30:19.138Z,6.1337
2023-04-21T07:31:27.479Z,6.2243
2023-04-21T07:32:35.262Z,6.3361
2023-04-21T07:33:43.334Z,6.3756
2023-04-21T07:34:51.273Z,6.4448
2023-04-21T07:35:59.403Z,6.4641
2023-04-21T07:37:07.531Z,6.6430
2023-04-21T07:38:15.444Z,6.6760
2023-04-21T07:39:23.630Z,6.5022
2023-04-21T07:40:31.674Z,6.4938
2023-04-21T07:41:39.693Z,6.6823
2023-04-21T07:42:47.826Z,6.8068
2023-04-21T07:43:55.951Z,6.5665
2023-04-21T07:45:03.902Z,6.5751
2023-04-21T07:46:12.005Z,6.6146
2023-04-21T07:47:19.999Z,6.6529
2023-04-21T07:48:28.022Z,6.1673
2023-04-21T07:49:36.204Z,6.3170
2023-04-21T07:50:44.336Z,6.5476
2023-04-21T07:51:52.281Z,6.6186
2023-04-21T07:53:00.307Z,6.6945
2023-04-21T07:54:08.407Z,6.7073
2023-04-21T07:55:16.476Z,6.6462
2023-04-21T07:56:24.545Z,6.5335
2023-04-21T07:57:32.578Z,6.4627
2023-04-21T07:58:40.561Z,6.3000
2023-04-21T07:59:48.707Z,6.3062
2023-04-21T08:00:56.676Z,6.3475
2023-04-21T08:02:05.106Z,6.3218
2023-04-21T08:03:13.278Z,6.1909
2023-04-21T08:04:21.109Z,5.9285
2023-04-21T08:05:33.200Z,6.1850
2023-04-21T08:06:42.011Z,6.1809
2023-04-21T08:07:50.014Z,6.3227
2023-04-21T08:08:58.010Z,6.4917
2023-04-21T08:10:06.026Z,6.3926
2023-04-21T08:11:14.335Z,6.2981
2023-04-21T08:12:22.318Z,6.3939
2023-04-21T08:13:30.246Z,6.3014
2023-04-21T08:14:38.331Z,6.3462
2023-04-21T08:15:46.485Z,6.4997
2023-04-21T08:16:56.775Z,6.5440
2023-04-21T08:18:07.473Z,6.4557
2023-04-21T08:19:15.425Z,6.1620
2023-04-21T08:20:23.528Z,6.2899
2023-04-21T08:21:31.588Z,6.5259
2023-04-21T08:22:39.774Z,6.6674
2023-04-21T08:23:47.688Z,6.8978
2023-04-21T08:24:55.678Z,6.8839
2023-04-21T08:26:03.796Z,6.6962
2023-04-21T08:27:11.850Z,7.0687
2023-04-21T08:28:19.949Z,6.9232
2023-04-21T08:29:28.022Z,6.9039
2023-04-21T08:30:35.985Z,6.9608
2023-04-21T08:31:44.211Z,6.7122
2023-04-21T08:32:52.264Z,6.5846
2023-04-21T08:34:02.453Z,6.7170
2023-04-21T08:35:13.192Z,6.9111
2023-04-21T08:36:28.867Z,7.1456
2023-04-21T08:37:34.226Z,7.0172
2023-04-21T08:38:42.264Z,7.0283
2023-04-21T08:39:50.317Z,7.0681
2023-04-21T08:40:58.316Z,7.2060
2023-04-21T08:42:06.615Z,7.1133
2023-04-21T08:43:14.435Z,6.8974
2023-04-21T08:44:22.568Z,6.9190
2023-04-21T08:45:30.573Z,7.2894
2023-04-21T08:46:38.624Z,7.5150
2023-04-21T08:47:46.688Z,7.6228
2023-04-21T08:48:55.424Z,7.5768
2023-04-21T08:50:02.767Z,7.5253
2023-04-21T08:51:10.764Z,7.3569
2023-04-21T08:52:18.933Z,7.2022
2023-04-21T08:53:26.969Z,7.5082
2023-04-21T08:54:35.011Z,7.6829
2023-04-21T08:55:43.024Z,7.6018
2023-04-21T08:56:52.421Z,7.6266
2023-04-21T08:58:04.064Z,7.8916
2023-04-21T08:59:12.123Z,7.7365
2023-04-21T09:00:20.184Z,7.3954
2023-04-21T09:01:28.395Z,7.0618
2023-04-21T09:02:36.515Z,6.8387
2023-04-21T09:03:44.383Z,6.6203
2023-04-21T09:04:52.986Z,6.7342
2023-04-21T09:06:00.758Z,7.0166
2023-04-21T09:07:08.510Z,6.7702
2023-04-21T09:08:16.526Z,6.5308
2023-04-21T09:09:24.685Z,6.7218
2023-04-21T09:10:32.832Z,6.9766
2023-04-21T09:11:40.725Z,6.6321
2023-04-21T09:12:48.841Z,7.0340
2023-04-21T09:13:56.771Z,7.1748
2023-04-21T09:15:05.099Z,7.5423
2023-04-21T09:16:13.067Z,7.5879
2023-04-21T09:17:21.058Z,7.4725
2023-04-21T09:18:29.157Z,7.5263
2023-04-21T09:19:37.156Z,7.8736
2023-04-21T09:20:45.214Z,8.1649
2023-04-21T09:21:53.336Z,7.9509
2023-04-21T09:23:01.276Z,8.0436
2023-04-21T09:24:09.417Z,8.1216
2023-04-21T09:25:17.455Z,8.4698
2023-04-21T09:26:25.640Z,8.5074
2023-04-21T09:27:33.741Z,8.1609
2023-04-21T09:29:47.021Z,9.9937
2023-04-21T09:30:55.383Z,9.3953
2023-04-21T09:32:03.394Z,9.6457
2023-04-21T09:33:27.212Z,9.1658
2023-04-21T09:34:24.220Z,9.0879
2023-04-21T09:35:32.253Z,9.4098
2023-04-21T09:36:40.381Z,9.1958
2023-04-21T09:37:48.512Z,8.9572
2023-04-21T09:39:17.328Z,9.1140
2023-04-21T09:40:09.330Z,9.0573
2023-04-21T09:41:17.334Z,8.6730
2023-04-21T09:42:25.392Z,8.7062
2023-04-21T09:43:33.473Z,8.6121
2023-04-21T09:44:53.218Z,8.7437
2023-04-21T09:45:54.676Z,8.8157
2023-04-21T09:47:02.696Z,8.9072
2023-04-21T09:48:10.634Z,9.1245
2023-04-21T09:49:19.046Z,9.0277
2023-04-21T09:51:01.870Z,9.3514
2023-04-21T09:52:06.069Z,9.1130
2023-04-21T09:52:52.549Z,8.8658
2023-04-21T09:54:00.708Z,8.8221
2023-04-21T09:55:09.067Z,8.8618
2023-04-21T09:56:16.813Z,8.7830
2023-04-21T09:57:24.882Z,8.5761
2023-04-21T09:58:33.020Z,8.8410
2023-04-21T09:59:41.013Z,8.8914
2023-04-21T10:00:49.210Z,8.7100
2023-04-21T10:01:57.137Z,8.5698
2023-04-21T10:03:05.397Z,8.6354
2023-04-21T10:04:13.664Z,8.9635
2023-04-21T10:05:21.273Z,9.1445
2023-04-21T10:06:29.368Z,9.0838
2023-04-21T10:07:37.386Z,8.9223
2023-04-21T10:08:45.573Z,8.9526
2023-04-21T10:09:53.706Z,9.2576
2023-04-21T10:11:01.660Z,9.2011
2023-04-21T10:12:10.057Z,9.7064
2023-04-21T10:13:17.804Z,9.8264
2023-04-21T10:14:25.839Z,10.3646
2023-04-21T10:15:33.965Z,10.8521
2023-04-21T10:16:41.994Z,10.7726
2023-04-21T10:17:50.245Z,10.4884
2023-04-21T10:18:58.107Z,10.5668
2023-04-21T10:20:06.079Z,10.6555
2023-04-21T10:21:14.142Z,10.4150
2023-04-21T10:22:22.403Z,10.5832
2023-04-21T10:23:30.352Z,10.6826
2023-04-21T10:24:38.423Z,10.8636
2023-04-21T10:25:46.584Z,11.9481
2023-04-21T10:26:55.397Z,12.7354
2023-04-21T10:28:02.561Z,13.2357
2023-04-21T10:29:10.687Z,13.1808
2023-04-21T10:30:18.795Z,14.1530
2023-04-21T10:31:26.847Z,14.5610
2023-04-21T10:32:34.890Z,15.5804
2023-04-21T10:33:42.882Z,16.2629
2023-04-21T10:34:50.864Z,17.0001
2023-04-21T10:35:58.911Z,17.0174
2023-04-21T10:37:06.991Z,17.5027
2023-04-21T10:38:15.076Z,18.1668
2023-04-21T10:39:23.263Z,18.3448
2023-04-21T10:40:43.243Z,17.9400
2023-04-21T10:41:44.144Z,17.8960
2023-04-21T10:42:52.209Z,18.2700
2023-04-21T10:44:00.310Z,18.9959
2023-04-21T10:45:08.342Z,19.6423
2023-04-21T10:46:16.441Z,20.2348
2023-04-21T10:47:24.647Z,20.3959
2023-04-21T10:48:32.493Z,20.3824
2023-04-21T10:49:40.512Z,20.7919
2023-04-21T10:50:48.545Z,20.9399
2023-04-21T10:51:56.792Z,20.9096
2023-04-21T10:53:04.850Z,20.0209
2023-04-21T10:54:12.732Z,18.7129
2023-04-21T10:55:20.927Z,18.5130
2023-04-21T10:56:28.975Z,18.7356
2023-04-21T10:57:37.065Z,19.5561
2023-04-21T10:58:45.284Z,19.4049
2023-04-21T10:59:53.160Z,18.4914
2023-04-21T11:01:01.256Z,17.4128
2023-04-21T11:02:09.415Z,17.4464
2023-04-21T11:03:17.383Z,17.1845
2023-04-21T11:04:25.924Z,16.5263
2023-04-21T11:05:33.353Z,16.4481
2023-04-21T11:06:41.528Z,16.1647
2023-04-21T11:07:49.574Z,16.2961
2023-04-21T11:08:57.715Z,16.3674
2023-04-21T11:10:05.697Z,16.1811
2023-04-21T11:11:13.871Z,15.9196
2023-04-21T11:12:21.831Z,16.3089
2023-04-21T11:13:29.883Z,16.5747
2023-04-21T11:14:38.100Z,15.9123
2023-04-21T11:15:46.133Z,15.6016
2023-04-21T11:16:54.088Z,15.4860
2023-04-21T11:18:02.063Z,15.8236
2023-04-21T11:19:10.108Z,16.0313
2023-04-21T11:20:18.135Z,15.8055
2023-04-21T11:21:26.473Z,16.0765
2023-04-21T11:22:34.367Z,16.2526
2023-04-21T11:23:42.492Z,16.2116
2023-04-21T11:24:50.557Z,16.2101
2023-04-21T11:25:58.560Z,16.1969
2023-04-21T11:27:06.612Z,16.5660
2023-04-21T11:28:14.716Z,16.2936
2023-04-21T11:29:22.706Z,15.7702
2023-04-21T11:30:30.957Z,15.2726
2023-04-21T11:31:38.904Z,15.0132
2023-04-21T11:32:46.869Z,14.5881
2023-04-21T11:33:54.858Z,13.8993
2023-04-21T11:35:02.942Z,13.6561
2023-04-21T11:36:11.251Z,13.2651
2023-04-21T11:37:19.177Z,13.2504
2023-04-21T11:38:27.265Z,13.1419
2023-04-21T11:39:35.293Z,13.1625
2023-04-21T11:40:43.335Z,12.9382
2023-04-21T11:41:51.505Z,12.9273
2023-04-21T11:42:59.498Z,12.9372
2023-04-21T11:44:08.055Z,12.8699
2023-04-21T11:45:15.579Z,12.8533
2023-04-21T11:46:23.787Z,13.0633
2023-04-21T11:47:31.725Z,13.2075
2023-04-21T11:48:39.950Z,13.2130
2023-04-21T11:49:47.775Z,13.3666
2023-04-21T11:50:56.101Z,13.4055
2023-04-21T11:52:04.021Z,13.3231
2023-04-21T11:53:12.005Z,13.4320
2023-04-21T11:54:20.171Z,13.3153
2023-04-21T11:55:28.152Z,12.9855
2023-04-21T11:56:36.226Z,12.8167
2023-04-21T11:57:44.297Z,12.3347
2023-04-21T11:58:52.351Z,12.5586
2023-04-21T12:00:00.474Z,13.0677
2023-04-21T12:01:08.389Z,13.2846
2023-04-21T12:02:16.537Z,13.5493
2023-04-21T12:03:24.616Z,13.7381
2023-04-21T12:04:34.542Z,14.0343
2023-04-21T12:05:45.777Z,13.4498
2023-04-21T12:06:53.816Z,13.5939
2023-04-21T12:08:01.784Z,13.3994
2023-04-21T12:09:10.413Z,13.2706
2023-04-21T12:10:17.854Z,13.1507
2023-04-21T12:11:26.068Z,12.5699
2023-04-21T12:12:35.815Z,12.4722
2023-04-21T12:13:46.947Z,12.8212
2023-04-21T12:14:54.854Z,12.5319
2023-04-21T12:16:03.035Z,12.2456
2023-04-21T12:17:10.961Z,11.7636
2023-04-21T12:18:19.156Z,11.9056
2023-04-21T12:19:27.096Z,11.9439
2023-04-21T12:20:35.663Z,12.4949
2023-04-21T12:21:43.384Z,12.8176
2023-04-21T12:22:51.340Z,12.7929
2023-04-21T12:23:59.540Z,12.4818
2023-04-21T12:25:07.536Z,12.3730
2023-04-21T12:26:15.563Z,12.0642
2023-04-21T12:27:23.633Z,11.8260
2023-04-21T12:28:31.742Z,11.1953
2023-04-21T12:29:39.639Z,11.4554
2023-04-21T12:30:47.718Z,11.8722
2023-04-21T12:31:55.799Z,11.4646
2023-04-21T12:33:04.101Z,11.1892
2023-04-21T12:34:12.173Z,10.7493
2023-04-21T12:35:19.999Z,9.8977
2023-04-21T12:36:28.080Z,9.6444
2023-04-21T12:37:36.163Z,9.5015
2023-04-21T12:38:44.298Z,9.6131
2023-04-21T12:39:52.273Z,9.7049
2023-04-21T12:41:00.215Z,9.4603
2023-04-21T12:42:08.289Z,9.3209
2023-04-21T12:43:16.471Z,9.5534
2023-04-21T12:44:24.439Z,9.6965
2023-04-21T12:45:32.506Z,9.4878
2023-04-21T12:46:40.525Z,9.4533
2023-04-21T12:47:48.745Z,9.2648
2023-04-21T12:48:56.735Z,9.3634
2023-04-21T12:50:04.900Z,9.3747
2023-04-21T12:51:12.895Z,9.3062
2023-04-21T12:52:20.900Z,9.2608
2023-04-21T12:53:31.092Z,9.2572
2023-04-21T12:54:42.010Z,9.5408
2023-04-21T12:56:03.514Z,9.6595
2023-04-21T12:57:02.838Z,9.6012
2023-04-21T12:58:10.869Z,9.8538
2023-04-21T12:59:18.950Z,10.0417
2023-04-21T13:00:27.122Z,10.1466
2023-04-21T13:01:35.272Z,10.3085
2023-04-21T13:02:43.410Z,10.4079
2023-04-21T13:03:51.427Z,10.7043
2023-04-21T13:04:59.307Z,10.9965
2023-04-21T13:06:07.462Z,10.9856
2023-04-21T13:07:15.641Z,11.2336
2023-04-21T13:08:23.503Z,11.1689
2023-04-21T13:09:31.823Z,11.0772
2023-04-21T13:10:39.549Z,11.0663
2023-04-21T13:11:48.440Z,11.2365
2023-04-21T13:12:55.736Z,11.4842
2023-04-21T13:14:03.933Z,11.5287
2023-04-21T13:15:11.928Z,11.5554
2023-04-21T13:16:20.065Z,11.6687
2023-04-21T13:17:28.173Z,11.7398
2023-04-21T13:18:36.143Z,11.8169
2023-04-21T13:19:44.169Z,11.7945
2023-04-21T13:20:52.177Z,11.8909
2023-04-21T13:22:00.252Z,12.1688
2023-04-21T13:23:08.348Z,12.4446
2023-04-21T13:24:16.596Z,12.5981
2023-04-21T13:25:24.388Z,12.9149
2023-04-21T13:26:32.422Z,13.1137
2023-04-21T13:27:40.479Z,13.3418
2023-04-21T13:28:48.700Z,13.1860
2023-04-21T13:29:56.721Z,12.8979
2023-04-21T13:31:04.802Z,12.5380
2023-04-21T13:32:12.935Z,11.9836
2023-04-21T13:33:20.845Z,11.8460
2023-04-21T13:34:29.031Z,12.0875
2023-04-21T13:35:37.002Z,11.9607
2023-04-21T13:36:45.031Z,12.0082
2023-04-21T13:37:53.175Z,11.7694
2023-04-21T13:39:01.224Z,12.0074
2023-04-21T13:40:09.266Z,12.2998
2023-04-21T13:41:17.482Z,12.4211
2023-04-21T13:42:25.380Z,12.0639
2023-04-21T13:43:33.469Z,11.7463
2023-04-21T13:44:41.629Z,11.9147
2023-04-21T13:45:49.727Z,11.9845
2023-04-21T13:46:57.797Z,11.8764
2023-04-21T13:48:05.929Z,11.8434
2023-04-21T13:49:13.818Z,12.1520
2023-04-21T13:50:21.886Z,12.2485
2023-04-21T13:51:30.005Z,12.3978
2023-04-21T13:52:38.024Z,12.9243
2023-04-21T13:53:46.049Z,13.2232
2023-04-21T13:54:54.214Z,13.5068
2023-04-21T13:56:02.133Z,14.2939
2023-04-21T13:57:10.243Z,14.9573
2023-04-21T13:58:18.312Z,15.1196
2023-04-21T13:59:26.383Z,15.2667
2023-04-21T14:00:34.461Z,15.4010
2023-04-21T14:01:42.538Z,15.5150
2023-04-21T14:02:50.769Z,15.4439
2023-04-21T14:03:59.047Z,15.0567
2023-04-21T14:05:06.874Z,15.0035
2023-04-21T14:06:14.755Z,14.7706
2023-04-21T14:07:24.999Z,14.5613